Jardim, Brazil
Current Conditions -  °F | °C
As of 3:00 AM on Monday 26 Jan 2015 (Local Time) from SBJU Reporting Station
Scattered Clouds Scattered Clouds  
Wind Chill: 81°   Ceiling: Unl
Heat Index: 84°   Visibility: 6mi
Dew Point: 70°   Wind: 5mph
Humidity: 70%   Direction: 40°NE
Pressure: 30"   Gusts: NA
Location:  7.58°S, 39.3°W
Report Text: SBJU 260600Z 04004KT 9999 SCT020 27/21 Q1016
Loading
Personal Weather Stations






























Interactive Weather Map New forecast layout! Learn more

10-Day Weather Forecast

Advertisements
Track Severe Weather on mobile